Latest Weather Observations for Kalumburu

IDD60801

Issued at 8:01 pm CST Thursday 11 February 2016 (issued every 30 minutes, with the page automatically refreshed every 10 minutes)

About weather observations | Map of weather stations | Latest weather observations for NT | Other Formats
Station Details ID: 001019 Name: KALUMBURU Lat: -14.30 Lon: 126.65 Height: 23.0 m
Data from the previous 72 hours. | See also: Recent months at Kalumburu
Date/Time
CST
Temp
°C
App
Temp
°C
Dew
Point
Rel
Hum
%
Delta-T
°C
Wind Press
QNH
hPa
Press
MSL
hPa
Rain
since 9 am
mm
Dir
 
Spd
km/h
Gust
km/h
Spd
kts
Gust
kts
11/08:00pm 26.1 28.7 20.0 69 4.0 SSE 6 13 3 7 1007.4 1007.2 4.4
11/07:30pm 25.8 30.0 21.0 75 3.2 CALM 0 6 0 3 1006.5 1006.3 4.4
11/07:00pm 26.8 28.5 19.4 64 4.8 WNW 9 15 5 8 1005.8 1005.6 4.4
11/06:30pm 26.9 29.2 20.7 69 4.1 NW 9 13 5 7 1005.7 1005.5 4.4
11/06:00pm 26.5 27.8 20.8 71 3.8 N 15 20 8 11 1005.5 1005.3 4.4
11/05:30pm 26.3 28.1 21.1 73 3.4 N 13 20 7 11 1005.4 1005.2 4.4
11/05:00pm 26.7 29.2 21.7 74 3.3 N 11 19 6 10 1005.4 1005.2 4.4
11/04:30pm 26.3 28.4 21.7 76 3.1 NW 13 28 7 15 1004.9 1004.7 4.2
11/04:00pm 24.7 25.8 20.4 77 2.8 ESE 15 35 8 19 1004.3 1004.1 4.2
11/03:45pm 26.8 24.0 17.3 56 6.0 E 28 65 15 35 1004.7 1004.5 0.6
11/03:42pm 29.6 27.1 17.1 47 7.9 ENE 26 43 14 23 1004.9 1004.7 0.0
11/03:30pm 34.6 38.3 25.1 57 6.8 NNE 15 26 8 14 1004.6 1004.4 0.0
11/03:00pm 36.2 39.5 25.1 53 7.9 NNW 17 24 9 13 1004.0 1003.8 0.0
11/02:30pm 37.4 41.6 23.4 44 9.8 S 7 11 4 6 1004.5 1004.3 0.0
11/02:00pm 36.8 39.9 21.4 41 10.5 SE 7 9 4 5 1004.9 1004.7 0.0
11/01:30pm 36.4 39.9 22.2 44 9.8 S 7 11 4 6 1005.2 1005.0 0.0
11/01:00pm 35.6 39.1 22.2 46 9.2 S 7 11 4 6 1005.8 1005.6 0.0
11/12:30pm 35.2 39.8 23.8 51 8.0 S 6 11 3 6 1006.2 1006.0 0.0
11/12:00pm 34.6 38.7 23.3 52 7.9 S 7 13 4 7 1006.6 1006.4 0.0
11/11:30am 33.9 38.2 23.6 55 7.2 SW 7 13 4 7 1006.8 1006.6 0.0
11/11:00am 33.0 36.1 22.1 52 7.4 S 9 15 5 8 1007.1 1006.9 0.0
11/10:30am 32.6 36.0 23.3 58 6.4 S 11 17 6 9 1007.5 1007.3 18.6
11/10:00am 31.8 35.5 23.3 60 5.9 SSW 9 20 5 11 1007.6 1007.4 18.6
11/09:30am 31.1 35.7 24.2 66 4.8 SSW 7 11 4 6 1007.8 1007.6 18.6
11/09:00am 30.0 34.2 23.2 67 4.7 SSW 6 13 3 7 1007.8 1007.6 18.6
11/08:30am 29.5 34.2 23.4 69 4.2 SSE 4 7 2 4 1007.9 1007.7 18.6
11/08:00am 28.1 33.1 24.5 81 2.5 S 6 7 3 4 1007.5 1007.3 18.6
11/07:30am 26.0 31.8 23.9 88 1.4 CALM 0 0 0 0 1007.2 1007.0 18.6
11/07:00am 25.3 30.5 22.8 86 1.7 CALM 0 2 0 1 1006.8 1006.6 18.6
11/06:30am 25.4 29.6 23.1 87 1.6 ESE 6 7 3 4 1006.6 1006.4 18.6
11/06:00am 25.5 29.6 23.0 86 1.7 NE 6 7 3 4 1006.2 1006.0 18.6
11/05:30am 25.6 29.4 22.7 84 2.0 NNW 7 9 4 5 1006.1 1005.9 18.6
11/05:00am 25.7 29.5 22.4 82 2.2 WNW 6 7 3 4 1006.6 1006.4 18.6
11/04:30am 26.2 30.7 22.3 79 2.6 SW 2 7 1 4 1006.9 1006.7 18.6
11/04:00am 26.5 30.0 22.8 80 2.5 S 9 17 5 9 1007.4 1007.2 18.6
11/03:30am 25.1 28.8 22.2 84 1.9 SSE 6 9 3 5 1006.4 1006.2 18.6
11/03:00am 26.1 29.3 21.7 77 2.9 S 7 11 4 6 1006.5 1006.3 18.6
11/02:30am 26.4 29.6 21.6 75 3.2 S 7 11 4 6 1006.7 1006.5 18.6
11/02:00am 26.4 29.9 21.8 76 3.1 SSW 6 11 3 6 1006.6 1006.4 18.6
11/01:30am 26.4 29.8 22.0 77 3.0 S 7 9 4 5 1006.8 1006.6 18.6
11/01:00am 26.7 30.3 22.1 76 3.1 S 6 9 3 5 1007.1 1006.9 18.6
11/12:30am 26.7 29.9 22.3 77 3.0 S 9 13 5 7 1007.5 1007.3 18.6
11/12:00am 26.8 30.0 22.4 77 3.0 SSE 9 15 5 8 1007.6 1007.4 18.6
 
Date/Time
CST
Temp
°C
App
Temp
°C
Dew
Point
Rel
Hum
%
Delta-T
°C
Wind Press
QNH
hPa
Press
MSL
hPa
Rain
since 9 am
mm
Dir
 
Spd
km/h
Gust
km/h
Spd
kts
Gust
kts
10/11:30pm 26.4 30.4 23.1 82 2.2 S 7 13 4 7 1007.9 1007.7 18.6
10/11:00pm 25.6 30.0 23.5 88 1.4 SSE 6 9 3 5 1007.9 1007.7 18.6
10/10:30pm 25.4 30.6 22.9 86 1.7 CALM 0 0 0 0 1007.6 1007.4 18.6
10/10:00pm 25.5 30.7 22.8 85 1.8 CALM 0 7 0 4 1007.8 1007.6 18.6
10/09:30pm 25.4 30.2 22.9 86 1.7 S 2 9 1 5 1007.5 1007.3 18.6
10/09:00pm 25.1 30.3 22.8 87 1.6 CALM 0 0 0 0 1007.1 1006.9 18.6
10/08:30pm 24.8 29.3 22.3 86 1.7 SSE 2 7 1 4 1006.8 1006.6 18.6
10/08:00pm 24.9 28.3 22.0 84 1.9 WSW 7 11 4 6 1006.6 1006.4 18.6
10/07:30pm 24.8 28.7 21.9 84 1.9 SW 4 9 2 5 1006.0 1005.8 18.6
10/07:00pm 24.9 27.6 21.4 81 2.3 SE 9 17 5 9 1005.3 1005.1 18.6
10/06:30pm 25.9 25.1 20.0 70 3.8 NNE 24 65 13 35 1004.2 1004.0 18.0
10/06:23pm 25.5 21.9 19.4 69 3.9 WSW 37 65 20 35 1005.7 1005.5 16.0
10/06:21pm 24.7 19.8 17.2 63 4.7 SW 39 67 21 36 1006.7 1006.5 13.4
10/06:19pm 23.5 19.9 18.6 74 3.1 SSW 35 67 19 36 1006.7 1006.5 10.0
10/06:12pm 24.3 23.5 18.0 68 4.0 SE 19 67 10 36 1005.6 1005.4 4.0
10/06:00pm 26.0 23.6 19.2 66 4.4 SE 30 67 16 36 1004.8 1004.6 1.2
10/05:51pm 28.7 28.2 19.1 56 6.2 E 20 67 11 36 1004.4 1004.2 0.2
10/05:36pm 29.1 27.6 17.6 50 7.3 NE 22 35 12 19 1004.9 1004.7 0.0
10/05:30pm 34.1 35.3 22.2 50 8.2 NNW 19 32 10 17 1004.7 1004.5 0.0
10/05:00pm 35.0 37.6 24.6 55 7.4 NW 19 32 10 17 1003.2 1003.0 0.0
10/04:30pm 36.4 39.6 24.9 51 8.2 WNW 17 26 9 14 1003.5 1003.3 0.0
10/04:00pm 37.6 40.2 23.3 44 10.0 WNW 15 26 8 14 1003.8 1003.6 0.0
10/03:30pm 38.1 39.8 18.5 31 13.0 SW 7 17 4 9 1004.3 1004.1 0.0
10/03:00pm 37.6 39.1 19.0 33 12.3 S 9 17 5 9 1004.7 1004.5 0.0
10/02:30pm 37.5 39.2 19.4 34 12.1 SSW 9 15 5 8 1005.2 1005.0 0.0
10/02:00pm 36.9 38.0 18.0 33 12.3 SSW 9 17 5 9 1005.6 1005.4 0.0
10/01:30pm 36.9 39.4 20.2 37 11.3 S 7 15 4 8 1005.9 1005.7 0.0
10/01:00pm 36.4 37.7 18.5 35 11.8 WSW 9 20 5 11 1006.4 1006.2 0.0
10/12:30pm 35.7 36.7 18.7 36 11.2 SW 11 17 6 9 1006.8 1006.6 0.0
10/12:00pm 35.3 37.9 21.2 44 9.6 W 9 15 5 8 1007.1 1006.9 0.0
10/11:30am 34.1 38.2 22.2 50 8.2 S 4 9 2 5 1007.5 1007.3 0.0
10/11:00am 32.9 35.6 21.4 50 7.8 S 9 13 5 7 1007.9 1007.7 0.0
10/10:30am 32.7 35.7 21.9 53 7.4 SSW 9 13 5 7 1008.1 1007.9 0.0
10/10:00am 31.6 35.5 22.9 60 6.0 S 7 13 4 7 1008.1 1007.9 0.0
10/09:30am 30.3 33.6 22.5 63 5.3 S 9 15 5 8 1008.2 1008.0 0.0
10/09:00am 28.4 31.4 21.9 68 4.4 S 9 13 5 7 1008.1 1007.9 0.0
10/08:30am 27.6 30.6 21.9 71 3.8 S 9 11 5 6 1008.1 1007.9 0.0
10/08:00am 27.0 29.9 21.7 73 3.5 S 9 13 5 7 1008.0 1007.8 0.0
10/07:30am 26.1 29.8 22.2 79 2.6 S 6 9 3 5 1007.6 1007.4 0.0
10/07:00am 26.0 30.7 21.9 78 2.7 CALM 0 4 0 2 1007.5 1007.3 0.0
10/06:30am 26.1 30.7 21.7 77 2.9 CALM 0 9 0 5 1007.3 1007.1 0.0
10/06:00am 26.1 30.9 22.2 79 2.6 CALM 0 0 0 0 1007.1 1006.9 0.0
10/05:30am 26.2 30.0 21.6 76 3.1 S 4 7 2 4 1006.9 1006.7 0.0
10/05:00am 26.2 29.3 21.4 75 3.2 S 7 11 4 6 1006.8 1006.6 0.0
10/04:30am 26.3 28.8 21.1 73 3.4 S 9 13 5 7 1006.8 1006.6 0.0
10/04:00am 26.5 29.2 21.3 73 3.5 SSE 9 15 5 8 1006.7 1006.5 0.0
10/03:30am 26.4 29.8 22.0 77 3.0 S 7 13 4 7 1007.0 1006.8 0.0
10/03:00am 26.1 30.9 22.2 79 2.6 CALM 0 0 0 0 1006.7 1006.5 0.0
10/02:30am 26.7 29.8 21.0 71 3.8 S 6 7 3 4 1006.8 1006.6 0.0
10/02:00am 26.8 30.0 20.6 69 4.1 W 4 7 2 4 1007.4 1007.2 0.0
10/01:30am 26.7 29.1 20.1 67 4.3 SSE 7 11 4 6 1008.1 1007.9 0.0
10/01:00am 26.7 29.5 20.8 70 3.9 SSE 7 13 4 7 1008.9 1008.7 0.0
10/12:30am 27.3 30.5 20.6 67 4.4 SSW 4 11 2 6 1009.3 1009.1 0.0
10/12:00am 27.6 30.3 22.1 72 3.7 SSW 11 24 6 13 1009.9 1009.7 0.0
 
Date/Time
CST
Temp
°C
App
Temp
°C
Dew
Point
Rel
Hum
%
Delta-T
°C
Wind Press
QNH
hPa
Press
MSL
hPa
Rain
since 9 am
mm
Dir
 
Spd
km/h
Gust
km/h
Spd
kts
Gust
kts
09/11:30pm 27.8 31.9 23.2 76 3.1 S 7 11 4 6 1009.9 1009.7 0.0
09/11:00pm 27.0 31.6 22.4 76 3.1 S 2 7 1 4 1009.6 1009.4 0.0
09/10:30pm 26.8 30.4 22.0 75 3.2 SE 6 9 3 5 1008.8 1008.6 0.0
09/10:00pm 26.9 30.3 21.6 72 3.5 ESE 6 7 3 4 1008.4 1008.2 0.0
09/09:30pm 27.1 30.1 20.9 69 4.1 SE 6 9 3 5 1008.2 1008.0 0.0
09/09:00pm 28.0 30.3 19.5 60 5.5 WSW 6 11 3 6 1008.1 1007.9 0.0
09/08:30pm 29.2 30.9 20.1 58 6.0 SW 11 20 6 11 1007.6 1007.4 0.0
09/08:00pm 31.9 36.9 24.5 65 5.2 NNW 6 11 3 6 1007.5 1007.3 0.0
09/07:30pm 32.6 35.9 23.8 59 6.1 N 13 20 7 11 1006.6 1006.4 0.0
09/07:00pm 33.4 35.7 22.8 53 7.3 N 15 20 8 11 1006.4 1006.2 0.0
09/06:30pm 33.8 36.3 23.2 54 7.4 N 15 24 8 13 1005.8 1005.6 0.0
09/06:00pm 34.4 36.7 22.8 51 8.0 N 15 22 8 12 1005.4 1005.2 0.0
09/05:30pm 35.7 38.5 23.0 48 8.8 NW 13 20 7 11 1005.3 1005.1 0.0
09/05:00pm 35.2 38.3 24.2 53 7.7 NNW 15 20 8 11 1005.5 1005.3 0.0
09/04:30pm 35.0 38.0 24.0 53 7.7 N 15 20 8 11 1005.7 1005.5 0.0
09/04:00pm 35.0 36.9 22.7 49 8.5 NNW 17 24 9 13 1006.0 1005.8 0.0
09/03:30pm 34.8 37.7 24.4 54 7.3 N 17 26 9 14 1006.3 1006.1 0.0
09/03:00pm 34.6 37.4 23.6 52 7.7 NNW 15 24 8 13 1006.6 1006.4 0.0
09/02:30pm 35.9 39.2 22.5 46 9.3 SSW 9 19 5 10 1006.8 1006.6 0.0
09/02:00pm 36.6 38.8 19.5 36 11.4 SSE 7 11 4 6 1007.0 1006.8 0.0
09/01:30pm 36.1 37.5 17.7 33 12.0 SSE 7 13 4 7 1007.5 1007.3 0.0
09/01:00pm 35.8 38.4 20.1 40 10.5 S 6 11 3 6 1008.0 1007.8 0.0
09/12:30pm 35.6 39.7 23.2 48 8.6 SE 7 11 4 6 1008.5 1008.3 0.0
09/12:00pm 35.0 39.0 22.7 49 8.5 SE 6 9 3 5 1008.9 1008.7 0.0
09/11:30am 34.4 38.1 22.5 50 8.2 S 7 11 4 6 1009.2 1009.0 0.0
09/11:00am 33.7 38.9 24.8 59 6.3 SSE 6 9 3 5 1009.6 1009.4 0.0
09/10:30am 32.9 37.7 24.1 60 6.2 W 6 7 3 4 1009.7 1009.5 0.0
09/10:00am 32.1 37.9 25.7 69 4.6 SSE 6 9 3 5 1009.8 1009.6 0.0
09/09:30am 31.0 36.3 24.9 70 4.3 SSE 6 9 3 5 1009.9 1009.7 0.0
09/09:00am 30.3 36.2 24.7 72 3.9 S 2 7 1 4 1009.7 1009.5 0.0
09/08:30am 28.7 34.8 25.1 81 2.5 SSW 2 7 1 4 1009.7 1009.5 0.0
09/08:00am 27.4 34.1 25.4 89 1.4 CALM 0 0 0 0 1009.5 1009.3 0.0
09/07:30am 25.3 30.9 23.5 90 1.2 CALM 0 0 0 0 1009.0 1008.8 0.0
09/07:00am 24.9 30.2 23.0 89 1.3 CALM 0 0 0 0 1008.7 1008.5 0.0
09/06:30am 25.2 30.6 23.3 89 1.3 CALM 0 0 0 0 1008.3 1008.1 0.0
09/06:00am 25.3 30.8 23.4 89 1.3 CALM 0 0 0 0 1007.9 1007.7 0.0
09/05:30am 25.4 31.0 23.5 89 1.3 CALM 0 0 0 0 1007.7 1007.5 0.0
09/05:00am 25.4 31.0 23.5 89 1.3 CALM 0 0 0 0 1007.7 1007.5 0.0
09/04:30am 25.6 31.3 23.7 89 1.3 CALM 0 0 0 0 1007.6 1007.4 0.0
09/04:00am 25.7 31.4 23.7 89 1.4 CALM 0 6 0 3 1007.8 1007.6 0.0
09/03:30am 25.6 31.2 23.5 88 1.4 CALM 0 0 0 0 1008.0 1007.8 0.0
09/03:00am 26.1 31.9 24.0 88 1.4 CALM 0 0 0 0 1008.0 1007.8 0.0
09/02:30am 26.1 31.7 23.6 86 1.7 CALM 0 0 0 0 1008.1 1007.9 0.0
09/02:00am 26.5 32.3 24.0 86 1.7 CALM 0 0 0 0 1008.4 1008.2 0.0
09/01:30am 26.7 32.8 24.4 87 1.6 CALM 0 0 0 0 1008.7 1008.5 0.0
09/01:00am 26.9 32.9 24.2 85 1.9 CALM 0 4 0 2 1009.0 1008.8 0.0
09/12:30am 27.2 33.3 24.5 85 1.9 CALM 0 0 0 0 1009.3 1009.1 0.0
09/12:00am 27.5 33.7 24.6 84 2.0 CALM 0 0 0 0 1009.5 1009.3 0.0
 
Date/Time
CST
Temp
°C
App
Temp
°C
Dew
Point
Rel
Hum
%
Delta-T
°C
Wind Press
QNH
hPa
Press
MSL
hPa
Rain
since 9 am
mm
Dir
 
Spd
km/h
Gust
km/h
Spd
kts
Gust
kts
08/11:30pm 27.9 33.8 24.1 80 2.6 CALM 0 0 0 0 1009.5 1009.3 0.0
08/11:00pm 28.4 33.1 24.0 77 3.0 NNW 6 7 3 4 1009.3 1009.1 0.0
08/10:30pm 28.6 32.9 23.7 75 3.4 N 7 9 4 5 1009.1 1008.9 0.0
08/10:00pm 28.8 33.3 23.9 75 3.4 N 7 9 4 5 1008.8 1008.6 0.0

Other Formats:

Comma delimited format used in spreadsheet applications
http://www.bom.gov.au/fwo/IDD60801/IDD60801.94100.axf

JavaScript Object Notation format (JSON) in row-major order
http://www.bom.gov.au/fwo/IDD60801/IDD60801.94100.json